Airfield :







YOU CAN JOIN US ON...

 
LOGIN :

Register | Disclaimer

   EN    FR    IT 

 









Legend :    VFR   Marginal VFR   IFR   Intensive IFR   Very Intensive IFR
Visi :
Ceiling :
>= 8 km
>= 3000ft
5 to 8 km
1000 to 3000 ft
1500m to 5 km
500 to 1000 ft
800 to 1500m
200 to 500 ft
< 800m
< 200 ft
Symbols :   Thunderstorms  Fog  Heavy snow  Heavy precipitations  Wind > 20 kt







- Airport Elevation : 18 ft
- IATA code : BIU


BIBD - Bildudalur

CURRENT METAR :
  • 191600Z 23003KT 9999 -RA FEW008 SCT014 OVC018 12/10 Q0999

EXPIRED METARs :
  • 191500Z 19003KT 9999 RA FEW008 SCT012 OVC018 11/10 Q1000
  • 191400Z 19003KT 9999 RA FEW008 SCT015 OVC018 10/09 Q1000

TAF TAF BIBD
Valid from the 19 at 14:00 until the 19 at 23:00 UTC


191313Z 1914/1923 22006KT 9000 -RA FEW005 SCT012 OVC020
TEMPO 1914/1923 3000 RA BR BKN003 OVC006
No reported NOTAMs for that airfield.



MET'MAP, your aeronautical weather chart ! - Copyright ORBIFLY December 2007 - Disclaimer

ORBIFLY MET'MAP TEAM :

Programming & Development : Alexandra Zaïnal
Concept & Development : Baudouin d'Aumeries
Co-Development & Prog : Marc-Olivier Méhu
Technical & hardware support : Manuel Goepfert

Contact : metmap@orbifly.com




SOURCES & CREDITS :

   NOAA